Terminal Aerodrome Forecast
Issued by NWS

Home | Current Version | Previous Version | Text Only | Print | Product List | Glossary On
Versions: 1 2 3 4 5 6 7 8 9 10 11 12 13 14 15 16 17 18 19 20 21 22
355
FTUS46 KSTO 171136
TAFRBL
TAF
KRBL 171136Z 1712/1812 33004KT 3SM BR OVC015
      TEMPO 1712/1716 1SM BR OVC008
     FM171700 VRB05KT P6SM BKN025 OVC250
     FM171900 16006KT P6SM SCT120 OVC200
     FM180600 VRB05KT P6SM -RA OVC050
      TEMPO 1808/1812 4SM -RA OVC025=

USA.gov is the U.S. government's official web portal to all federal, state and local government web resources and services.